»·PEaware :: N287JB KBUR-KFUL

N287JB :: KBUR-KFUL

FLIGHT INFORMATION

Flight Status: Arrived
Operator: Privately registered:
United States
More flights under this callsign
Pilot: John L. (16055)
Aircraft: SOCATA TBM-900
(TBM9)
More flights by this aircraft type
Origin: KBUR Bob Hope-Burbank
United States
Destination: KFUL Fullerton Mun
United States
More flights between these airports :: More routes between these airports
Route: VPLRB KEMT CAHIL
File this flight plan on PilotEdge
Remarks:
Altitude:
(Current/Filed)
3,500ft
Speed:
(Current/Filed)
200kts
Departed: 02-Feb-22 12:26 PM
Arrived: 02-Feb-22 12:39 PM
Distance/Time
Traveled:
27nm/0:13
Distance/Time
To Go:
Arrived

Flight Plot

Page will automatically refresh every two minutes.

Flight plan parsing failed; only flown route is shown


Map Options




Map Legend


Flown Route
Filed Route
Departure Airport
Arrival Airport
Navaid (VOR, NDB)
Fix

Horizontal Profiles

Position Reports

Time Latitude Longitude Heading Altitude Ground
Speed
02-Feb-22 11:56 34.200209 -118.358855 280 733ft 0kts
02-Feb-22 11:57 34.200209 -118.358855 280 733ft 0kts
02-Feb-22 11:58 34.200209 -118.358855 280 733ft 0kts
02-Feb-22 11:59 34.200209 -118.358855 280 733ft 0kts
02-Feb-22 12:00 34.200209 -118.358855 280 733ft 0kts
02-Feb-22 12:01 34.200209 -118.358855 280 733ft 0kts
02-Feb-22 12:02 34.200209 -118.358855 280 733ft 0kts
02-Feb-22 12:03 34.200209 -118.358855 280 733ft 0kts
02-Feb-22 12:04 34.200209 -118.358855 280 733ft 0kts
02-Feb-22 12:11 34.200210 -118.358856 280 733ft 0kts
02-Feb-22 12:12 34.200210 -118.358856 280 733ft 0kts
02-Feb-22 12:13 34.200210 -118.358856 280 733ft 0kts
02-Feb-22 12:14 34.200210 -118.358856 280 733ft 0kts
02-Feb-22 12:15 34.200210 -118.358856 280 733ft 0kts
02-Feb-22 12:16 34.200210 -118.358856 280 733ft 0kts
02-Feb-22 12:17 34.200210 -118.358856 280 733ft 0kts
02-Feb-22 12:18 34.200211 -118.358856 280 733ft 0kts
02-Feb-22 12:19 34.199949 -118.359139 173 733ft 2kts
02-Feb-22 12:20 34.198821 -118.358449 273 733ft 11kts
02-Feb-22 12:21 34.198887 -118.362051 268 733ft 14kts
02-Feb-22 12:22 34.199085 -118.366348 271 733ft 11kts
02-Feb-22 12:23 34.198894 -118.368925 208 733ft 0kts
02-Feb-22 12:24 34.197981 -118.368628 121 733ft 4kts
02-Feb-22 12:25 34.197806 -118.354824 90 907ft 127kts
02-Feb-22 12:26 34.194156 -118.300254 108 2346ft 190kts
02-Feb-22 12:27 34.156855 -118.252979 163 3169ft 200kts
02-Feb-22 12:28 34.127597 -118.193151 102 3573ft 236kts
02-Feb-22 12:29 34.114719 -118.132135 111 3514ft 172kts
02-Feb-22 12:30 34.098136 -118.076468 109 3444ft 176kts
02-Feb-22 12:32 34.074167 -118.028701 157 3451ft 172kts
02-Feb-22 12:33 34.029679 -118.006581 157 3442ft 170kts
02-Feb-22 12:34 33.986945 -117.985164 157 3056ft 164kts
02-Feb-22 12:35 33.950273 -117.966817 158 2438ft 146kts
02-Feb-22 12:36 33.910644 -117.953063 185 1661ft 152kts
02-Feb-22 12:37 33.888221 -117.985560 255 1422ft 119kts
02-Feb-22 12:38 33.873789 -118.001155 146 1110ft 86kts
02-Feb-22 12:39 33.872038 -117.979662 107 93ft 12kts
02-Feb-22 12:40 33.871352 -117.978797 168 93ft 9kts
02-Feb-22 12:41 33.871160 -117.978518 87 93ft 0kts
02-Feb-22 12:42 33.871160 -117.978518 87 93ft 0kts
02-Feb-22 12:43 33.871160 -117.978518 87 93ft 0kts
02-Feb-22 12:44 33.871160 -117.978518 87 93ft 0kts
02-Feb-22 12:45 33.871160 -117.978518 87 93ft 0kts
02-Feb-22 12:46 33.871160 -117.978518 87 93ft 0kts
02-Feb-22 12:47 33.871160 -117.978518 87 93ft 0kts
02-Feb-22 12:48 33.871160 -117.978518 87 93ft 0kts
02-Feb-22 12:49 33.871160 -117.978518 87 93ft 0kts
02-Feb-22 12:50 33.871160 -117.978518 87 93ft 0kts
02-Feb-22 12:51 33.871160 -117.978518 87 93ft 0kts
02-Feb-22 12:52 33.871160 -117.978518 87 93ft 0kts
02-Feb-22 12:53 33.871160 -117.978518 87 93ft 0kts

Navigation Log

Ident Type
Flight plan parsing failed, navigation log unavailable